sensor_id;sensor_type;location;lat;lon;timestamp;pressure;altitude;pressure_sealevel;temperature;humidity
39141;BME280;24875;48.436;10.298;2023-01-10T00:00:19;95888.00;;;4.85;100.00
39141;BME280;24875;48.436;10.298;2023-01-10T00:02:46;95894.41;;;4.74;100.00
39141;BME280;24875;48.436;10.298;2023-01-10T00:05:13;95881.84;;;4.94;100.00
39141;BME280;24875;48.436;10.298;2023-01-10T00:07:40;95888.72;;;4.95;100.00
39141;BME280;24875;48.436;10.298;2023-01-10T00:10:07;95890.59;;;4.85;100.00
39141;BME280;24875;48.436;10.298;2023-01-10T00:12:34;95890.97;;;4.90;100.00
39141;BME280;24875;48.436;10.298;2023-01-10T00:15:18;95896.50;;;4.87;100.00
39141;BME280;24875;48.436;10.298;2023-01-10T00:17:45;95904.56;;;4.94;100.00
39141;BME280;24875;48.436;10.298;2023-01-10T00:20:11;95900.66;;;4.98;100.00
39141;BME280;24875;48.436;10.298;2023-01-10T00:22:39;95910.94;;;4.99;100.00
39141;BME280;24875;48.436;10.298;2023-01-10T00:25:06;95913.41;;;4.83;100.00
39141;BME280;24875;48.436;10.298;2023-01-10T00:27:33;95911.38;;;4.95;100.00
39141;BME280;24875;48.436;10.298;2023-01-10T00:30:00;95918.34;;;4.86;100.00
39141;BME280;24875;48.436;10.298;2023-01-10T00:32:35;95923.63;;;4.77;100.00
39141;BME280;24875;48.436;10.298;2023-01-10T00:35:01;95923.84;;;4.83;100.00
39141;BME280;24875;48.436;10.298;2023-01-10T00:37:31;95923.03;;;4.83;100.00
39141;BME280;24875;48.436;10.298;2023-01-10T00:39:59;95927.81;;;4.87;100.00
39141;BME280;24875;48.436;10.298;2023-01-10T00:42:25;95928.47;;;4.72;100.00
39141;BME280;24875;48.436;10.298;2023-01-10T00:45:09;95919.00;;;4.54;100.00
39141;BME280;24875;48.436;10.298;2023-01-10T00:47:36;95929.03;;;4.58;100.00
39141;BME280;24875;48.436;10.298;2023-01-10T00:50:03;95929.75;;;4.51;100.00
39141;BME280;24875;48.436;10.298;2023-01-10T00:52:30;95932.03;;;4.36;100.00
39141;BME280;24875;48.436;10.298;2023-01-10T00:54:58;95931.53;;;4.33;100.00
39141;BME280;24875;48.436;10.298;2023-01-10T00:57:25;95939.63;;;4.30;100.00
39141;BME280;24875;48.436;10.298;2023-01-10T00:59:51;95936.81;;;4.41;100.00
39141;BME280;24875;48.436;10.298;2023-01-10T01:02:18;95946.47;;;4.31;100.00
39141;BME280;24875;48.436;10.298;2023-01-10T01:04:44;95947.56;;;4.38;100.00
39141;BME280;24875;48.436;10.298;2023-01-10T01:07:11;95954.75;;;4.26;100.00
39141;BME280;24875;48.436;10.298;2023-01-10T01:09:37;95969.63;;;4.43;100.00
39141;BME280;24875;48.436;10.298;2023-01-10T01:12:25;95971.28;;;4.62;100.00
39141;BME280;24875;48.436;10.298;2023-01-10T01:14:51;95964.72;;;4.58;100.00
39141;BME280;24875;48.436;10.298;2023-01-10T01:17:18;95971.19;;;4.54;100.00
39141;BME280;24875;48.436;10.298;2023-01-10T01:19:44;95976.03;;;4.49;100.00
39141;BME280;24875;48.436;10.298;2023-01-10T01:22:11;95988.66;;;4.53;100.00
39141;BME280;24875;48.436;10.298;2023-01-10T01:24:37;95998.00;;;4.46;100.00
39141;BME280;24875;48.436;10.298;2023-01-10T01:27:04;95995.78;;;4.51;100.00
39141;BME280;24875;48.436;10.298;2023-01-10T01:29:32;96003.03;;;4.57;100.00
39141;BME280;24875;48.436;10.298;2023-01-10T01:31:58;96012.25;;;4.52;100.00
39141;BME280;24875;48.436;10.298;2023-01-10T01:34:26;96006.31;;;4.59;100.00
39141;BME280;24875;48.436;10.298;2023-01-10T01:36:53;96014.38;;;4.66;100.00
39141;BME280;24875;48.436;10.298;2023-01-10T01:39:21;96023.31;;;4.63;100.00
39141;BME280;24875;48.436;10.298;2023-01-10T01:41:47;96030.28;;;4.45;100.00
39141;BME280;24875;48.436;10.298;2023-01-10T01:44:24;96040.06;;;4.61;100.00
39141;BME280;24875;48.436;10.298;2023-01-10T01:47:00;96038.44;;;4.86;100.00
39141;BME280;24875;48.436;10.298;2023-01-10T01:49:29;96041.22;;;4.76;100.00
39141;BME280;24875;48.436;10.298;2023-01-10T01:52:00;96053.41;;;4.84;100.00
39141;BME280;24875;48.436;10.298;2023-01-10T01:54:28;96049.28;;;4.82;100.00
39141;BME280;24875;48.436;10.298;2023-01-10T01:56:59;96055.06;;;4.85;100.00
39141;BME280;24875;48.436;10.298;2023-01-10T01:59:30;96063.66;;;4.95;100.00
39141;BME280;24875;48.436;10.298;2023-01-10T02:02:02;96063.41;;;4.89;100.00
39141;BME280;24875;48.436;10.298;2023-01-10T02:04:35;96065.88;;;4.90;100.00
39141;BME280;24875;48.436;10.298;2023-01-10T02:07:03;96071.91;;;4.64;100.00
39141;BME280;24875;48.436;10.298;2023-01-10T02:09:38;96069.06;;;4.84;100.00
39141;BME280;24875;48.436;10.298;2023-01-10T02:12:08;96075.22;;;4.66;100.00
39141;BME280;24875;48.436;10.298;2023-01-10T02:14:36;96080.94;;;4.70;100.00
39141;BME280;24875;48.436;10.298;2023-01-10T02:17:07;96081.16;;;4.85;100.00
39141;BME280;24875;48.436;10.298;2023-01-10T02:19:43;96091.28;;;4.88;100.00
39141;BME280;24875;48.436;10.298;2023-01-10T02:22:48;96091.50;;;5.04;100.00
39141;BME280;24875;48.436;10.298;2023-01-10T02:32:12;96094.28;;;4.76;100.00
39141;BME280;24875;48.436;10.298;2023-01-10T02:34:50;96085.41;;;4.86;100.00
39141;BME280;24875;48.436;10.298;2023-01-10T02:37:33;96097.78;;;4.84;100.00
39141;BME280;24875;48.436;10.298;2023-01-10T02:40:07;96095.88;;;4.77;100.00
39141;BME280;24875;48.436;10.298;2023-01-10T02:42:42;96098.38;;;4.79;100.00
39141;BME280;24875;48.436;10.298;2023-01-10T02:45:16;96108.13;;;4.77;100.00
39141;BME280;24875;48.436;10.298;2023-01-10T02:47:48;96113.03;;;4.80;100.00
39141;BME280;24875;48.436;10.298;2023-01-10T02:50:31;96115.41;;;4.73;100.00
39141;BME280;24875;48.436;10.298;2023-01-10T02:53:04;96117.22;;;4.73;100.00
39141;BME280;24875;48.436;10.298;2023-01-10T02:55:38;96119.72;;;4.65;100.00
39141;BME280;24875;48.436;10.298;2023-01-10T02:58:18;96134.69;;;4.63;100.00
39141;BME280;24875;48.436;10.298;2023-01-10T03:00:52;96137.69;;;4.68;100.00
39141;BME280;24875;48.436;10.298;2023-01-10T03:03:32;96140.97;;;4.70;100.00
39141;BME280;24875;48.436;10.298;2023-01-10T03:06:16;96144.97;;;4.74;100.00
39141;BME280;24875;48.436;10.298;2023-01-10T03:08:49;96158.13;;;4.72;100.00
39141;BME280;24875;48.436;10.298;2023-01-10T03:11:20;96149.88;;;4.77;100.00
39141;BME280;24875;48.436;10.298;2023-01-10T03:14:05;96150.75;;;4.68;100.00
39141;BME280;24875;48.436;10.298;2023-01-10T03:16:35;96147.06;;;4.61;100.00
39141;BME280;24875;48.436;10.298;2023-01-10T03:19:07;96149.25;;;4.65;100.00
39141;BME280;24875;48.436;10.298;2023-01-10T03:21:35;96159.72;;;4.56;100.00
39141;BME280;24875;48.436;10.298;2023-01-10T03:24:06;96162.44;;;4.64;100.00
39141;BME280;24875;48.436;10.298;2023-01-10T03:26:42;96175.63;;;4.62;100.00
39141;BME280;24875;48.436;10.298;2023-01-10T03:29:16;96180.81;;;4.72;100.00
39141;BME280;24875;48.436;10.298;2023-01-10T03:31:47;96184.38;;;4.71;100.00
39141;BME280;24875;48.436;10.298;2023-01-10T03:34:18;96187.28;;;4.68;100.00
39141;BME280;24875;48.436;10.298;2023-01-10T03:36:50;96187.25;;;4.77;100.00
39141;BME280;24875;48.436;10.298;2023-01-10T03:39:22;96193.00;;;4.81;100.00
39141;BME280;24875;48.436;10.298;2023-01-10T03:41:55;96200.28;;;4.77;100.00
39141;BME280;24875;48.436;10.298;2023-01-10T03:44:30;96207.84;;;4.80;100.00
39141;BME280;24875;48.436;10.298;2023-01-10T03:47:12;96206.38;;;4.68;100.00
39141;BME280;24875;48.436;10.298;2023-01-10T03:49:44;96212.72;;;4.56;100.00
39141;BME280;24875;48.436;10.298;2023-01-10T03:52:14;96227.16;;;4.51;100.00
39141;BME280;24875;48.436;10.298;2023-01-10T03:54:42;96231.84;;;4.47;100.00
39141;BME280;24875;48.436;10.298;2023-01-10T03:57:15;96231.13;;;4.55;100.00
39141;BME280;24875;48.436;10.298;2023-01-10T03:59:42;96244.91;;;4.38;100.00
39141;BME280;24875;48.436;10.298;2023-01-10T04:02:09;96248.03;;;4.41;100.00
39141;BME280;24875;48.436;10.298;2023-01-10T04:04:35;96256.38;;;4.64;100.00
39141;BME280;24875;48.436;10.298;2023-01-10T04:07:03;96260.78;;;4.54;100.00
39141;BME280;24875;48.436;10.298;2023-01-10T04:09:30;96268.50;;;4.46;100.00
39141;BME280;24875;48.436;10.298;2023-01-10T04:11:56;96275.63;;;4.44;100.00
39141;BME280;24875;48.436;10.298;2023-01-10T04:14:22;96276.06;;;4.39;100.00
39141;BME280;24875;48.436;10.298;2023-01-10T04:16:49;96277.28;;;4.45;100.00
39141;BME280;24875;48.436;10.298;2023-01-10T04:19:15;96282.94;;;4.40;100.00
39141;BME280;24875;48.436;10.298;2023-01-10T04:21:42;96284.88;;;4.29;100.00
39141;BME280;24875;48.436;10.298;2023-01-10T04:24:10;96287.88;;;4.43;100.00
39141;BME280;24875;48.436;10.298;2023-01-10T04:26:37;96288.69;;;4.34;100.00
39141;BME280;24875;48.436;10.298;2023-01-10T04:29:03;96296.53;;;4.34;100.00
39141;BME280;24875;48.436;10.298;2023-01-10T04:31:30;96309.97;;;4.39;100.00
39141;BME280;24875;48.436;10.298;2023-01-10T04:33:57;96301.47;;;4.28;100.00
39141;BME280;24875;48.436;10.298;2023-01-10T04:36:24;96311.91;;;4.28;100.00
39141;BME280;24875;48.436;10.298;2023-01-10T04:38:50;96308.19;;;4.30;100.00
39141;BME280;24875;48.436;10.298;2023-01-10T04:41:18;96317.94;;;4.38;100.00
39141;BME280;24875;48.436;10.298;2023-01-10T04:43:44;96317.66;;;4.22;100.00
39141;BME280;24875;48.436;10.298;2023-01-10T04:46:11;96324.53;;;4.23;100.00
39141;BME280;24875;48.436;10.298;2023-01-10T04:48:37;96328.22;;;4.21;100.00
39141;BME280;24875;48.436;10.298;2023-01-10T04:51:04;96344.25;;;4.16;100.00
39141;BME280;24875;48.436;10.298;2023-01-10T04:53:31;96344.56;;;4.13;100.00
39141;BME280;24875;48.436;10.298;2023-01-10T04:56:01;96347.19;;;4.32;100.00
39141;BME280;24875;48.436;10.298;2023-01-10T04:58:30;96347.56;;;4.27;100.00
39141;BME280;24875;48.436;10.298;2023-01-10T05:00:57;96361.03;;;4.23;100.00
39141;BME280;24875;48.436;10.298;2023-01-10T05:03:23;96367.50;;;4.38;100.00
39141;BME280;24875;48.436;10.298;2023-01-10T05:05:50;96373.25;;;4.32;100.00
39141;BME280;24875;48.436;10.298;2023-01-10T05:08:16;96374.88;;;4.23;100.00
39141;BME280;24875;48.436;10.298;2023-01-10T05:10:43;96382.19;;;4.29;100.00
39141;BME280;24875;48.436;10.298;2023-01-10T05:13:09;96382.84;;;4.31;100.00
39141;BME280;24875;48.436;10.298;2023-01-10T05:15:37;96387.41;;;4.29;100.00
39141;BME280;24875;48.436;10.298;2023-01-10T05:18:03;96396.69;;;4.22;100.00
39141;BME280;24875;48.436;10.298;2023-01-10T05:20:30;96406.88;;;4.35;100.00
39141;BME280;24875;48.436;10.298;2023-01-10T05:22:56;96414.28;;;4.30;100.00
39141;BME280;24875;48.436;10.298;2023-01-10T05:25:22;96418.03;;;4.37;100.00
39141;BME280;24875;48.436;10.298;2023-01-10T05:27:49;96426.28;;;4.42;100.00
39141;BME280;24875;48.436;10.298;2023-01-10T05:30:16;96429.97;;;4.49;100.00
39141;BME280;24875;48.436;10.298;2023-01-10T05:32:44;96438.09;;;4.46;100.00
39141;BME280;24875;48.436;10.298;2023-01-10T05:35:10;96440.41;;;4.49;100.00
39141;BME280;24875;48.436;10.298;2023-01-10T05:37:37;96452.25;;;4.62;100.00
39141;BME280;24875;48.436;10.298;2023-01-10T05:40:05;96447.28;;;4.59;100.00
39141;BME280;24875;48.436;10.298;2023-01-10T05:42:32;96456.34;;;4.55;100.00
39141;BME280;24875;48.436;10.298;2023-01-10T05:44:58;96458.00;;;4.66;100.00
39141;BME280;24875;48.436;10.298;2023-01-10T05:47:24;96464.22;;;4.74;100.00
39141;BME280;24875;48.436;10.298;2023-01-10T05:49:52;96478.06;;;4.75;100.00
39141;BME280;24875;48.436;10.298;2023-01-10T05:52:19;96479.31;;;4.61;100.00
39141;BME280;24875;48.436;10.298;2023-01-10T05:54:45;96485.63;;;4.59;100.00
39141;BME280;24875;48.436;10.298;2023-01-10T05:57:12;96476.56;;;4.63;100.00
39141;BME280;24875;48.436;10.298;2023-01-10T05:59:38;96488.78;;;4.72;100.00
39141;BME280;24875;48.436;10.298;2023-01-10T06:02:05;96490.59;;;4.71;100.00
39141;BME280;24875;48.436;10.298;2023-01-10T06:04:31;96502.41;;;4.75;100.00
39141;BME280;24875;48.436;10.298;2023-01-10T06:06:59;96509.16;;;4.78;100.00
39141;BME280;24875;48.436;10.298;2023-01-10T06:09:26;96504.72;;;4.69;100.00
39141;BME280;24875;48.436;10.298;2023-01-10T06:11:52;96508.84;;;4.81;100.00
39141;BME280;24875;48.436;10.298;2023-01-10T06:14:18;96500.75;;;4.83;100.00
39141;BME280;24875;48.436;10.298;2023-01-10T06:16:45;96507.09;;;4.90;100.00
39141;BME280;24875;48.436;10.298;2023-01-10T06:19:11;96514.50;;;4.85;100.00
39141;BME280;24875;48.436;10.298;2023-01-10T06:21:38;96524.84;;;4.96;100.00
39141;BME280;24875;48.436;10.298;2023-01-10T06:24:06;96528.41;;;5.05;100.00
39141;BME280;24875;48.436;10.298;2023-01-10T06:26:33;96531.13;;;4.84;100.00
39141;BME280;24875;48.436;10.298;2023-01-10T06:28:59;96542.13;;;4.97;100.00
39141;BME280;24875;48.436;10.298;2023-01-10T06:31:26;96541.03;;;5.00;100.00
39141;BME280;24875;48.436;10.298;2023-01-10T06:33:53;96560.78;;;4.83;100.00
39141;BME280;24875;48.436;10.298;2023-01-10T06:36:19;96567.09;;;4.72;100.00
39141;BME280;24875;48.436;10.298;2023-01-10T06:38:46;96570.13;;;4.77;100.00
39141;BME280;24875;48.436;10.298;2023-01-10T06:41:13;96575.66;;;4.92;100.00
39141;BME280;24875;48.436;10.298;2023-01-10T06:43:41;96578.53;;;4.89;100.00
39141;BME280;24875;48.436;10.298;2023-01-10T06:46:09;96594.09;;;5.00;100.00
39141;BME280;24875;48.436;10.298;2023-01-10T06:48:35;96590.69;;;5.09;100.00
39141;BME280;24875;48.436;10.298;2023-01-10T06:51:03;96602.03;;;4.99;100.00
39141;BME280;24875;48.436;10.298;2023-01-10T06:53:29;96600.00;;;5.02;100.00
39141;BME280;24875;48.436;10.298;2023-01-10T06:55:55;96606.31;;;5.00;100.00
39141;BME280;24875;48.436;10.298;2023-01-10T06:58:23;96613.75;;;5.04;100.00
39141;BME280;24875;48.436;10.298;2023-01-10T07:00:50;96616.63;;;5.01;100.00
39141;BME280;24875;48.436;10.298;2023-01-10T07:03:16;96629.53;;;4.93;100.00
39141;BME280;24875;48.436;10.298;2023-01-10T07:05:43;96623.66;;;5.01;100.00
39141;BME280;24875;48.436;10.298;2023-01-10T07:08:09;96636.19;;;5.07;100.00
39141;BME280;24875;48.436;10.298;2023-01-10T07:10:36;96643.34;;;5.14;100.00
39141;BME280;24875;48.436;10.298;2023-01-10T07:13:04;96652.13;;;5.13;100.00
39141;BME280;24875;48.436;10.298;2023-01-10T07:15:32;96651.47;;;5.21;100.00
39141;BME280;24875;48.436;10.298;2023-01-10T07:17:59;96654.91;;;5.21;100.00
39141;BME280;24875;48.436;10.298;2023-01-10T07:20:25;96658.03;;;5.15;100.00
39141;BME280;24875;48.436;10.298;2023-01-10T07:22:53;96670.66;;;5.10;100.00
39141;BME280;24875;48.436;10.298;2023-01-10T07:25:20;96671.59;;;4.90;100.00
39141;BME280;24875;48.436;10.298;2023-01-10T07:27:46;96683.69;;;4.91;100.00
39141;BME280;24875;48.436;10.298;2023-01-10T07:30:13;96686.34;;;5.10;100.00
39141;BME280;24875;48.436;10.298;2023-01-10T07:32:41;96687.91;;;5.22;100.00
39141;BME280;24875;48.436;10.298;2023-01-10T07:35:08;96691.47;;;5.21;100.00
39141;BME280;24875;48.436;10.298;2023-01-10T07:37:34;96689.97;;;5.28;100.00
39141;BME280;24875;48.436;10.298;2023-01-10T07:40:01;96699.88;;;5.25;100.00
39141;BME280;24875;48.436;10.298;2023-01-10T07:42:27;96696.97;;;5.18;100.00
39141;BME280;24875;48.436;10.298;2023-01-10T07:44:54;96711.78;;;5.18;100.00
39141;BME280;24875;48.436;10.298;2023-01-10T07:47:20;96709.59;;;5.13;100.00
39141;BME280;24875;48.436;10.298;2023-01-10T07:49:48;96715.84;;;5.31;100.00
39141;BME280;24875;48.436;10.298;2023-01-10T07:52:15;96718.38;;;5.12;100.00
39141;BME280;24875;48.436;10.298;2023-01-10T07:54:41;96728.44;;;5.17;100.00
39141;BME280;24875;48.436;10.298;2023-01-10T07:57:08;96735.59;;;5.24;100.00
39141;BME280;24875;48.436;10.298;2023-01-10T07:59:34;96724.34;;;5.33;100.00
39141;BME280;24875;48.436;10.298;2023-01-10T08:02:00;96735.16;;;5.19;100.00
39141;BME280;24875;48.436;10.298;2023-01-10T08:04:27;96740.47;;;5.38;100.00
39141;BME280;24875;48.436;10.298;2023-01-10T08:06:55;96746.53;;;5.48;100.00
39141;BME280;24875;48.436;10.298;2023-01-10T08:09:21;96751.47;;;5.32;100.00
39141;BME280;24875;48.436;10.298;2023-01-10T08:11:48;96755.72;;;5.33;100.00
39141;BME280;24875;48.436;10.298;2023-01-10T08:14:14;96756.97;;;5.39;100.00
39141;BME280;24875;48.436;10.298;2023-01-10T08:16:40;96774.53;;;5.27;100.00
39141;BME280;24875;48.436;10.298;2023-01-10T08:19:07;96773.16;;;5.23;100.00
39141;BME280;24875;48.436;10.298;2023-01-10T08:21:33;96766.06;;;5.35;100.00
39141;BME280;24875;48.436;10.298;2023-01-10T08:24:01;96767.81;;;5.34;100.00
39141;BME280;24875;48.436;10.298;2023-01-10T08:26:27;96762.41;;;5.17;100.00
39141;BME280;24875;48.436;10.298;2023-01-10T08:28:54;96763.91;;;5.19;100.00
39141;BME280;24875;48.436;10.298;2023-01-10T08:31:20;96756.25;;;5.27;100.00
39141;BME280;24875;48.436;10.298;2023-01-10T08:33:47;96764.25;;;5.35;100.00
39141;BME280;24875;48.436;10.298;2023-01-10T08:36:14;96779.66;;;5.38;100.00
39141;BME280;24875;48.436;10.298;2023-01-10T08:38:41;96780.69;;;5.56;100.00
39141;BME280;24875;48.436;10.298;2023-01-10T08:41:09;96788.28;;;5.59;99.89
39141;BME280;24875;48.436;10.298;2023-01-10T08:43:35;96801.13;;;5.42;100.00
39141;BME280;24875;48.436;10.298;2023-01-10T08:46:02;96805.53;;;5.41;100.00
39141;BME280;24875;48.436;10.298;2023-01-10T08:48:28;96814.72;;;5.36;100.00
39141;BME280;24875;48.436;10.298;2023-01-10T08:50:55;96811.88;;;5.48;100.00
39141;BME280;24875;48.436;10.298;2023-01-10T08:53:22;96806.75;;;5.37;100.00
39141;BME280;24875;48.436;10.298;2023-01-10T08:55:49;96812.25;;;5.34;100.00
39141;BME280;24875;48.436;10.298;2023-01-10T08:58:17;96820.31;;;5.61;100.00
39141;BME280;24875;48.436;10.298;2023-01-10T09:00:44;96829.59;;;5.44;100.00
39141;BME280;24875;48.436;10.298;2023-01-10T09:03:10;96824.34;;;5.35;100.00
39141;BME280;24875;48.436;10.298;2023-01-10T09:05:36;96828.88;;;5.33;100.00
39141;BME280;24875;48.436;10.298;2023-01-10T09:08:03;96831.47;;;5.33;97.17
39141;BME280;24875;48.436;10.298;2023-01-10T09:10:30;96837.84;;;5.40;96.84
39141;BME280;24875;48.436;10.298;2023-01-10T09:12:57;96845.78;;;5.29;97.44
39141;BME280;24875;48.436;10.298;2023-01-10T09:15:29;96853.53;;;5.40;96.04
39141;BME280;24875;48.436;10.298;2023-01-10T09:17:57;96859.19;;;5.45;95.18
39141;BME280;24875;48.436;10.298;2023-01-10T09:20:25;96866.56;;;5.60;95.85
39141;BME280;24875;48.436;10.298;2023-01-10T09:22:52;96867.91;;;5.55;96.07
39141;BME280;24875;48.436;10.298;2023-01-10T09:25:19;96866.25;;;5.54;97.17
39141;BME280;24875;48.436;10.298;2023-01-10T09:27:45;96860.16;;;5.44;99.65
39141;BME280;24875;48.436;10.298;2023-01-10T09:30:12;96857.13;;;5.48;98.57
39141;BME280;24875;48.436;10.298;2023-01-10T09:32:40;96860.59;;;5.49;99.99
39141;BME280;24875;48.436;10.298;2023-01-10T09:35:07;96869.69;;;5.54;98.56
39141;BME280;24875;48.436;10.298;2023-01-10T09:37:34;96866.28;;;5.63;97.98
39141;BME280;24875;48.436;10.298;2023-01-10T09:40:03;96855.53;;;5.57;98.04
39141;BME280;24875;48.436;10.298;2023-01-10T09:42:40;96862.06;;;5.72;98.70
39141;BME280;24875;48.436;10.298;2023-01-10T09:45:15;96869.31;;;5.59;99.16
39141;BME280;24875;48.436;10.298;2023-01-10T09:47:50;96871.56;;;5.73;100.00
39141;BME280;24875;48.436;10.298;2023-01-10T09:50:25;96881.44;;;5.69;100.00
39141;BME280;24875;48.436;10.298;2023-01-10T09:52:57;96880.88;;;5.66;100.00
39141;BME280;24875;48.436;10.298;2023-01-10T09:55:29;96886.38;;;5.63;100.00
39141;BME280;24875;48.436;10.298;2023-01-10T09:57:59;96891.78;;;5.71;100.00
39141;BME280;24875;48.436;10.298;2023-01-10T10:00:32;96897.09;;;5.90;100.00
39141;BME280;24875;48.436;10.298;2023-01-10T10:03:04;96900.69;;;5.68;100.00
39141;BME280;24875;48.436;10.298;2023-01-10T10:05:38;96904.28;;;5.67;100.00
39141;BME280;24875;48.436;10.298;2023-01-10T10:08:07;96895.34;;;5.70;99.96
39141;BME280;24875;48.436;10.298;2023-01-10T10:10:38;96897.06;;;5.80;99.66
39141;BME280;24875;48.436;10.298;2023-01-10T10:13:14;96895.72;;;5.86;99.19
39141;BME280;24875;48.436;10.298;2023-01-10T10:15:50;96895.75;;;6.04;99.50
39141;BME280;24875;48.436;10.298;2023-01-10T10:18:28;96895.88;;;5.94;98.56
39141;BME280;24875;48.436;10.298;2023-01-10T10:21:02;96898.34;;;5.86;99.87
39141;BME280;24875;48.436;10.298;2023-01-10T10:26:25;96902.66;;;6.05;96.36
39141;BME280;24875;48.436;10.298;2023-01-10T10:34:38;96890.53;;;6.04;94.45
39141;BME280;24875;48.436;10.298;2023-01-10T10:37:11;96889.84;;;6.03;95.79
39141;BME280;24875;48.436;10.298;2023-01-10T10:39:43;96891.94;;;6.08;96.63
39141;BME280;24875;48.436;10.298;2023-01-10T10:42:12;96878.69;;;6.01;97.75
39141;BME280;24875;48.436;10.298;2023-01-10T10:44:42;96880.47;;;5.91;96.91
39141;BME280;24875;48.436;10.298;2023-01-10T10:47:14;96875.38;;;5.99;97.24
39141;BME280;24875;48.436;10.298;2023-01-10T10:49:46;96870.59;;;6.04;95.83
39141;BME280;24875;48.436;10.298;2023-01-10T10:52:21;96872.81;;;6.17;96.46
39141;BME280;24875;48.436;10.298;2023-01-10T10:54:49;96881.03;;;6.04;97.33
39141;BME280;24875;48.436;10.298;2023-01-10T10:57:16;96888.22;;;6.11;95.18
39141;BME280;24875;48.436;10.298;2023-01-10T10:59:47;96884.53;;;6.32;95.02
39141;BME280;24875;48.436;10.298;2023-01-10T11:02:23;96884.69;;;6.50;94.48
39141;BME280;24875;48.436;10.298;2023-01-10T11:04:54;96899.00;;;6.27;94.40
39141;BME280;24875;48.436;10.298;2023-01-10T11:07:22;96903.94;;;6.20;96.19
39141;BME280;24875;48.436;10.298;2023-01-10T11:09:51;96907.78;;;6.26;96.34
39141;BME280;24875;48.436;10.298;2023-01-10T11:12:27;96900.19;;;6.13;97.03
39141;BME280;24875;48.436;10.298;2023-01-10T11:14:55;96900.16;;;5.95;96.77
39141;BME280;24875;48.436;10.298;2023-01-10T11:17:23;96897.69;;;5.93;97.38
39141;BME280;24875;48.436;10.298;2023-01-10T11:19:57;96899.88;;;5.98;98.29
39141;BME280;24875;48.436;10.298;2023-01-10T11:22:25;96887.47;;;5.90;98.68
39141;BME280;24875;48.436;10.298;2023-01-10T11:24:54;96888.72;;;5.96;99.19
39141;BME280;24875;48.436;10.298;2023-01-10T11:27:24;96889.78;;;5.84;99.82
39141;BME280;24875;48.436;10.298;2023-01-10T11:29:52;96889.72;;;5.74;100.00
39141;BME280;24875;48.436;10.298;2023-01-10T11:32:29;96886.00;;;5.97;100.00
39141;BME280;24875;48.436;10.298;2023-01-10T11:35:00;96881.59;;;6.07;100.00
39141;BME280;24875;48.436;10.298;2023-01-10T11:37:28;96875.34;;;5.89;100.00
39141;BME280;24875;48.436;10.298;2023-01-10T11:40:17;96889.03;;;6.11;100.00
39141;BME280;24875;48.436;10.298;2023-01-10T11:42:44;96880.97;;;5.85;100.00
39141;BME280;24875;48.436;10.298;2023-01-10T11:45:22;96877.41;;;5.86;100.00
39141;BME280;24875;48.436;10.298;2023-01-10T11:47:51;96873.03;;;5.66;100.00
39141;BME280;24875;48.436;10.298;2023-01-10T11:50:22;96874.41;;;5.70;100.00
39141;BME280;24875;48.436;10.298;2023-01-10T11:52:49;96874.25;;;5.62;100.00
39141;BME280;24875;48.436;10.298;2023-01-10T11:55:19;96882.63;;;5.56;100.00
39141;BME280;24875;48.436;10.298;2023-01-10T11:57:54;96875.50;;;5.67;100.00
39141;BME280;24875;48.436;10.298;2023-01-10T12:00:30;96873.72;;;5.88;100.00
39141;BME280;24875;48.436;10.298;2023-01-10T12:02:57;96871.91;;;5.89;100.00
39141;BME280;24875;48.436;10.298;2023-01-10T12:05:27;96868.84;;;5.84;100.00
39141;BME280;24875;48.436;10.298;2023-01-10T12:07:55;96879.22;;;5.95;100.00
39141;BME280;24875;48.436;10.298;2023-01-10T12:10:24;96875.81;;;6.04;100.00
39141;BME280;24875;48.436;10.298;2023-01-10T12:12:52;96873.00;;;5.96;100.00
39141;BME280;24875;48.436;10.298;2023-01-10T12:15:22;96874.69;;;5.97;100.00
39141;BME280;24875;48.436;10.298;2023-01-10T12:17:49;96872.63;;;5.91;100.00
39141;BME280;24875;48.436;10.298;2023-01-10T12:20:15;96874.16;;;6.03;100.00
39141;BME280;24875;48.436;10.298;2023-01-10T12:22:45;96864.25;;;6.15;100.00
39141;BME280;24875;48.436;10.298;2023-01-10T12:25:17;96867.59;;;6.17;100.00
39141;BME280;24875;48.436;10.298;2023-01-10T12:27:45;96867.97;;;6.04;100.00
39141;BME280;24875;48.436;10.298;2023-01-10T12:30:17;96871.16;;;6.16;100.00
39141;BME280;24875;48.436;10.298;2023-01-10T12:32:49;96872.00;;;6.26;100.00
39141;BME280;24875;48.436;10.298;2023-01-10T12:35:19;96875.25;;;6.00;99.92
39141;BME280;24875;48.436;10.298;2023-01-10T12:37:54;96880.53;;;6.19;99.76
39141;BME280;24875;48.436;10.298;2023-01-10T12:40:29;96881.47;;;6.27;100.00
39141;BME280;24875;48.436;10.298;2023-01-10T12:42:58;96884.69;;;6.40;98.87
39141;BME280;24875;48.436;10.298;2023-01-10T12:45:49;96882.09;;;6.40;95.44
39141;BME280;24875;48.436;10.298;2023-01-10T12:48:23;96883.03;;;6.39;94.32
39141;BME280;24875;48.436;10.298;2023-01-10T12:50:55;96888.94;;;6.41;94.58
39141;BME280;24875;48.436;10.298;2023-01-10T12:53:29;96874.38;;;6.48;91.38
39141;BME280;24875;48.436;10.298;2023-01-10T12:55:59;96864.97;;;6.55;89.20
39141;BME280;24875;48.436;10.298;2023-01-10T12:58:33;96867.72;;;6.63;88.32
39141;BME280;24875;48.436;10.298;2023-01-10T13:01:01;96870.78;;;6.59;87.86
39141;BME280;24875;48.436;10.298;2023-01-10T13:03:31;96862.66;;;6.71;87.58
39141;BME280;24875;48.436;10.298;2023-01-10T13:05:58;96856.16;;;6.75;87.19
39141;BME280;24875;48.436;10.298;2023-01-10T13:08:27;96862.66;;;6.71;87.71
39141;BME280;24875;48.436;10.298;2023-01-10T13:10:57;96865.81;;;6.65;85.91
39141;BME280;24875;48.436;10.298;2023-01-10T13:13:31;96860.03;;;6.71;84.05
39141;BME280;24875;48.436;10.298;2023-01-10T13:16:09;96850.78;;;6.95;84.64
39141;BME280;24875;48.436;10.298;2023-01-10T13:18:59;96868.59;;;6.64;78.85